ESGJ/JKG METAR and TAF weather

Enter ICAO airport designator
Station Type Date Time Source
ESGJ METAR 2020/09/19 21:50 UTC NOAA

ESGJ 192150Z AUTO 00000KT 0050 R01/0275N R19/0325N FG VV001 10/10 Q1023


Station Type Date Time Source
ESGJ Decoded METAR 2020/09/19 21:50 UTC NOAA

Jonkoping Flygplats, Sweden (ESGJ) 57-46N 014-05E 232M
Sep 19, 2020 - 05:50 PM EDT / 2020.09.19 2150 UTC
Wind: Calm:0
Visibility: less than 1 mile:0
Sky conditions: obscured
Weather: fog
Temperature: 50 F (10 C)
Dew Point: 50 F (10 C)
Relative Humidity: 100%
Pressure (altimeter): 30.21 in. Hg (1023 hPa)
ob: ESGJ 192150Z AUTO 00000KT 0050 R01/0275N R19/0325N FG VV001 10/10 Q1023
cycle: 22

Station Type Date Time Source
ESGJ TAF 2015/05/01 23:06 UTC NOAA

TAF TAF ESGJ 302359Z 3023/0101 CNL

Example: see airport list